createdAt,value
2023-01-09T00:00:45.863Z,2.80
2023-01-09T00:05:47.689Z,2.90
2023-01-09T00:10:50.580Z,2.90
2023-01-09T00:15:52.396Z,2.90
2023-01-09T00:20:54.207Z,2.80
2023-01-09T00:26:05.917Z,2.80
2023-01-09T00:31:09.536Z,2.90
2023-01-09T00:36:12.236Z,2.80
2023-01-09T00:41:20.774Z,2.90
2023-01-09T00:46:27.380Z,2.90
2023-01-09T00:51:29.449Z,2.90
2023-01-09T00:56:33.795Z,2.90
2023-01-09T01:01:35.988Z,2.90
2023-01-09T01:06:56.389Z,2.90
2023-01-09T01:11:58.134Z,3.00
2023-01-09T01:17:00.281Z,3.00
2023-01-09T01:22:02.527Z,3.00
2023-01-09T01:27:04.297Z,3.00
2023-01-09T01:32:06.033Z,3.00
2023-01-09T01:37:07.769Z,3.00
2023-01-09T01:42:12.986Z,3.10
2023-01-09T01:47:16.374Z,3.10
2023-01-09T01:52:19.348Z,3.00
2023-01-09T01:57:21.127Z,3.10
2023-01-09T02:02:25.681Z,3.00
2023-01-09T02:07:27.631Z,2.90
2023-01-09T02:12:29.403Z,2.90
2023-01-09T02:17:40.121Z,2.90
2023-01-09T02:22:50.726Z,2.90
2023-01-09T02:28:03.406Z,3.00
2023-01-09T02:33:32.510Z,3.00
2023-01-09T02:39:11.949Z,3.00
2023-01-09T02:44:29.696Z,3.00
2023-01-09T02:49:33.707Z,3.10
2023-01-09T02:54:52.526Z,3.10
2023-01-09T03:00:02.559Z,3.10
2023-01-09T03:05:11.369Z,3.10
2023-01-09T03:10:26.712Z,3.10
2023-01-09T03:15:32.230Z,3.10
2023-01-09T03:20:34.663Z,3.10
2023-01-09T03:25:36.392Z,3.10
2023-01-09T03:30:38.173Z,3.10
2023-01-09T03:35:39.887Z,3.20
2023-01-09T03:40:43.766Z,3.20
2023-01-09T03:45:45.579Z,3.30
2023-01-09T03:50:54.935Z,3.30
2023-01-09T03:55:58.070Z,3.30
2023-01-09T04:01:02.055Z,3.30
2023-01-09T04:06:04.473Z,3.40
2023-01-09T04:11:06.240Z,3.40
2023-01-09T04:16:08.290Z,3.40
2023-01-09T04:21:10.072Z,3.40
2023-01-09T04:26:11.810Z,3.50
2023-01-09T04:31:13.925Z,3.50
2023-01-09T04:36:15.663Z,3.50
2023-01-09T04:41:37.445Z,3.50
2023-01-09T04:46:39.178Z,3.60
2023-01-09T04:51:41.156Z,3.60
2023-01-09T04:56:42.923Z,3.60
2023-01-09T05:01:44.884Z,3.60
2023-01-09T05:06:46.918Z,3.60
2023-01-09T05:11:49.073Z,3.60
2023-01-09T05:16:50.851Z,3.70
2023-01-09T05:21:52.606Z,3.70
2023-01-09T05:26:54.365Z,3.70
2023-01-09T05:31:56.321Z,3.70
2023-01-09T05:36:58.069Z,3.70
2023-01-09T05:41:59.804Z,3.70
2023-01-09T05:47:02.881Z,3.70
2023-01-09T05:52:05.024Z,3.80
2023-01-09T05:57:06.794Z,3.80
2023-01-09T06:02:08.621Z,3.80
2023-01-09T06:07:10.400Z,3.80
2023-01-09T06:12:12.126Z,3.80
2023-01-09T06:17:13.886Z,3.90
2023-01-09T06:22:15.611Z,3.80
2023-01-09T06:27:17.342Z,3.90
2023-01-09T06:32:19.113Z,3.90
2023-01-09T06:37:20.822Z,3.90
2023-01-09T06:42:22.552Z,3.90
2023-01-09T06:47:24.300Z,3.90
2023-01-09T06:52:26.003Z,3.90
2023-01-09T06:57:27.739Z,4.00
2023-01-09T07:02:29.734Z,4.00
2023-01-09T07:07:31.496Z,4.00
2023-01-09T07:12:33.456Z,4.00
2023-01-09T07:17:35.407Z,4.00
2023-01-09T07:22:37.199Z,4.00
2023-01-09T07:27:39.312Z,4.00
2023-01-09T07:32:41.123Z,4.00
2023-01-09T07:37:42.864Z,4.00
2023-01-09T07:42:44.659Z,3.90
2023-01-09T07:47:46.412Z,3.90
2023-01-09T07:52:48.292Z,3.90
2023-01-09T07:57:51.079Z,3.80
2023-01-09T08:02:53.941Z,3.80
2023-01-09T08:07:55.867Z,3.80
2023-01-09T08:12:57.598Z,3.80
2023-01-09T08:17:59.495Z,3.80
2023-01-09T08:23:01.285Z,3.80
2023-01-09T08:28:03.046Z,3.80
2023-01-09T08:33:05.244Z,3.90
2023-01-09T08:38:06.987Z,3.90
2023-01-09T08:43:27.825Z,3.90
2023-01-09T08:48:29.607Z,3.90
2023-01-09T08:53:31.531Z,4.00
2023-01-09T08:58:33.395Z,4.00
2023-01-09T09:03:35.144Z,4.10
2023-01-09T09:08:36.859Z,4.20
2023-01-09T09:13:38.589Z,4.30
2023-01-09T09:18:40.314Z,4.30
2023-01-09T09:23:42.170Z,4.30
2023-01-09T09:28:43.976Z,4.30
2023-01-09T09:33:45.736Z,4.40
2023-01-09T09:38:48.799Z,4.40
2023-01-09T09:44:32.106Z,4.50
2023-01-09T09:49:53.499Z,4.50
2023-01-09T09:55:00.158Z,4.60
2023-01-09T10:00:04.510Z,4.60
2023-01-09T10:05:24.442Z,4.60
2023-01-09T10:10:44.387Z,4.50
2023-01-09T10:15:55.262Z,4.60
2023-01-09T10:21:05.503Z,4.60
2023-01-09T10:26:20.556Z,4.60
2023-01-09T10:31:34.251Z,4.70
2023-01-09T10:36:54.048Z,4.70
2023-01-09T10:42:11.213Z,4.70
2023-01-09T10:47:19.312Z,4.70
2023-01-09T10:52:28.770Z,4.70
2023-01-09T10:57:43.713Z,4.80
2023-01-09T11:02:45.864Z,4.80
2023-01-09T11:08:04.442Z,4.90
2023-01-09T11:13:20.408Z,4.80
2023-01-09T11:18:24.723Z,4.90
2023-01-09T11:23:32.399Z,4.90
2023-01-09T11:28:34.253Z,4.90
2023-01-09T11:33:47.014Z,4.90
2023-01-09T11:38:57.739Z,4.90
2023-01-09T11:44:00.177Z,4.90
2023-01-09T11:49:04.861Z,4.90
2023-01-09T11:54:26.454Z,4.90
2023-01-09T11:59:30.376Z,4.90
2023-01-09T12:04:32.082Z,4.90
2023-01-09T12:09:56.834Z,4.90
2023-01-09T12:15:04.654Z,5.00
2023-01-09T12:20:59.579Z,5.00
2023-01-09T12:26:14.210Z,5.00
2023-01-09T12:31:25.890Z,5.00
2023-01-09T12:36:47.846Z,5.00
2023-01-09T12:41:52.654Z,5.00
2023-01-09T12:47:13.090Z,5.00
2023-01-09T12:52:25.902Z,5.00
2023-01-09T12:57:32.857Z,5.10
2023-01-09T13:02:44.358Z,5.00
2023-01-09T13:08:08.175Z,5.00
2023-01-09T13:13:18.903Z,5.00
2023-01-09T13:18:41.867Z,5.00
2023-01-09T13:23:49.874Z,5.00
2023-01-09T13:28:54.905Z,5.00
2023-01-09T13:34:02.933Z,5.00
2023-01-09T13:39:07.059Z,5.10
2023-01-09T13:44:17.902Z,5.00
2023-01-09T13:49:43.815Z,5.00
2023-01-09T13:55:00.865Z,5.00
2023-01-09T14:00:14.975Z,5.00
2023-01-09T14:05:36.698Z,5.00
2023-01-09T14:10:49.171Z,5.00
2023-01-09T14:15:52.890Z,5.10
2023-01-09T14:21:01.319Z,5.00
2023-01-09T14:26:03.718Z,5.00
2023-01-09T14:31:07.121Z,5.00
2023-01-09T14:36:21.975Z,4.90
2023-01-09T14:42:00.930Z,4.90
2023-01-09T14:47:14.496Z,4.90
2023-01-09T14:52:25.140Z,4.90
2023-01-09T14:57:31.766Z,4.90
2023-01-09T15:02:36.633Z,4.90
2023-01-09T15:07:48.752Z,4.90
2023-01-09T15:12:54.531Z,4.90
2023-01-09T15:18:07.852Z,4.90
2023-01-09T15:23:22.846Z,4.90
2023-01-09T15:28:27.589Z,4.80
2023-01-09T15:33:29.722Z,4.80
2023-01-09T15:38:33.075Z,4.80
2023-01-09T15:43:36.816Z,4.70
2023-01-09T15:48:38.670Z,4.70
2023-01-09T15:53:41.515Z,4.70
2023-01-09T15:58:48.672Z,4.60
2023-01-09T16:03:51.020Z,4.60
2023-01-09T16:08:56.137Z,4.60
2023-01-09T16:14:13.971Z,4.60
2023-01-09T16:19:52.197Z,4.50
2023-01-09T16:24:57.339Z,4.50
2023-01-09T16:30:08.740Z,4.40
2023-01-09T16:35:19.436Z,4.30
2023-01-09T16:40:26.133Z,4.20
2023-01-09T16:45:32.320Z,4.10
2023-01-09T16:50:34.148Z,3.90
2023-01-09T16:55:37.526Z,3.80
2023-01-09T17:00:39.280Z,3.70
2023-01-09T17:05:41.370Z,3.70
2023-01-09T17:10:43.101Z,3.70
2023-01-09T17:15:45.529Z,3.70
2023-01-09T17:20:53.067Z,3.70
2023-01-09T17:26:16.737Z,3.70
2023-01-09T17:31:18.993Z,3.80
2023-01-09T17:36:32.257Z,3.80
2023-01-09T17:41:34.189Z,3.80
2023-01-09T17:46:38.398Z,3.90
2023-01-09T17:51:40.219Z,3.90
2023-01-09T17:56:45.345Z,3.90
2023-01-09T18:01:47.236Z,4.00
2023-01-09T18:06:49.544Z,4.00
2023-01-09T18:11:51.277Z,4.00
2023-01-09T18:16:53.036Z,4.00
2023-01-09T18:21:54.842Z,4.00
2023-01-09T18:26:56.555Z,4.00
2023-01-09T18:31:58.365Z,4.00
2023-01-09T18:37:00.199Z,4.00
2023-01-09T18:42:02.058Z,4.00
2023-01-09T18:47:03.923Z,4.10
2023-01-09T18:52:07.530Z,4.10
2023-01-09T18:57:09.541Z,4.10
2023-01-09T19:02:29.271Z,4.10
2023-01-09T19:07:31.566Z,4.20
2023-01-09T19:12:33.386Z,4.20
2023-01-09T19:17:35.121Z,4.20
2023-01-09T19:22:36.966Z,4.20
2023-01-09T19:27:39.151Z,4.20
2023-01-09T19:32:40.940Z,4.20
2023-01-09T19:37:42.882Z,4.20
2023-01-09T19:42:44.650Z,4.20
2023-01-09T19:47:47.475Z,4.20
2023-01-09T19:52:50.841Z,4.20
2023-01-09T19:57:52.663Z,4.20
2023-01-09T20:02:54.807Z,4.20
2023-01-09T20:07:57.500Z,4.20
2023-01-09T20:12:59.247Z,4.20
2023-01-09T20:18:01.899Z,4.20
2023-01-09T20:23:03.628Z,4.20
2023-01-09T20:28:05.412Z,4.10
2023-01-09T20:33:07.166Z,4.20
2023-01-09T20:38:09.325Z,4.20
2023-01-09T20:43:12.825Z,4.20
2023-01-09T20:48:14.779Z,4.10
2023-01-09T20:53:16.577Z,4.20
2023-01-09T20:58:18.354Z,4.20
2023-01-09T21:03:20.145Z,4.10
2023-01-09T21:08:21.893Z,4.10
2023-01-09T21:13:24.418Z,4.10
2023-01-09T21:18:26.141Z,4.10
2023-01-09T21:23:27.897Z,4.10
2023-01-09T21:28:31.685Z,4.00
2023-01-09T21:33:33.449Z,4.10
2023-01-09T21:38:35.566Z,4.00
2023-01-09T21:43:55.823Z,4.00
2023-01-09T21:48:57.778Z,4.00
2023-01-09T21:53:59.523Z,4.00
2023-01-09T21:59:02.031Z,4.00
2023-01-09T22:04:04.080Z,4.00
2023-01-09T22:09:05.948Z,4.00
2023-01-09T22:14:10.628Z,4.00
2023-01-09T22:19:13.706Z,4.00
2023-01-09T22:24:17.538Z,4.00
2023-01-09T22:29:19.286Z,3.90
2023-01-09T22:34:21.089Z,3.90
2023-01-09T22:39:22.894Z,3.90
2023-01-09T22:44:24.785Z,3.90
2023-01-09T22:49:30.281Z,3.90
2023-01-09T22:54:35.129Z,3.90
2023-01-09T22:59:37.010Z,3.90
2023-01-09T23:04:38.747Z,3.90
2023-01-09T23:09:40.539Z,3.90
2023-01-09T23:14:42.378Z,3.90
2023-01-09T23:19:44.237Z,3.90
2023-01-09T23:24:45.983Z,3.80
2023-01-09T23:29:47.878Z,3.80
2023-01-09T23:34:49.855Z,3.80
2023-01-09T23:39:51.627Z,3.90
2023-01-09T23:44:53.337Z,3.90
2023-01-09T23:49:55.072Z,3.90
2023-01-09T23:54:57.000Z,3.90
2023-01-09T23:59:59.242Z,3.90
